createdAt,value
2023-01-09T00:01:13.865Z,7.30
2023-01-09T00:03:43.135Z,7.30
2023-01-09T00:06:10.955Z,7.30
2023-01-09T00:08:39.511Z,7.30
2023-01-09T00:11:07.539Z,7.30
2023-01-09T00:13:36.049Z,7.20
2023-01-09T00:16:05.229Z,7.20
2023-01-09T00:18:33.249Z,7.20
2023-01-09T00:21:03.488Z,7.20
2023-01-09T00:23:31.446Z,7.20
2023-01-09T00:26:03.711Z,7.10
2023-01-09T00:28:31.489Z,7.10
2023-01-09T00:31:00.529Z,7.10
2023-01-09T00:33:32.154Z,7.10
2023-01-09T00:36:00.032Z,7.10
2023-01-09T00:38:29.227Z,7.10
2023-01-09T00:40:57.972Z,7.10
2023-01-09T00:43:31.114Z,7.00
2023-01-09T00:46:00.654Z,7.10
2023-01-09T00:48:29.631Z,7.00
2023-01-09T00:50:59.629Z,7.00
2023-01-09T00:53:32.053Z,7.00
2023-01-09T00:56:03.280Z,7.00
2023-01-09T00:58:32.459Z,7.00
2023-01-09T01:01:00.503Z,7.00
2023-01-09T01:03:28.797Z,7.00
2023-01-09T01:06:13.950Z,7.00
2023-01-09T01:08:43.292Z,7.00
2023-01-09T01:11:12.466Z,7.00
2023-01-09T01:13:41.533Z,7.00
2023-01-09T01:16:11.222Z,6.90
2023-01-09T01:18:39.518Z,6.90
2023-01-09T01:21:08.460Z,6.90
2023-01-09T01:23:37.273Z,6.90
2023-01-09T01:26:08.074Z,6.90
2023-01-09T01:28:35.993Z,6.90
2023-01-09T01:31:04.445Z,6.80
2023-01-09T01:33:32.938Z,6.80
2023-01-09T01:36:02.038Z,6.80
2023-01-09T01:38:30.540Z,6.80
2023-01-09T01:40:58.610Z,6.80
2023-01-09T01:43:27.812Z,6.70
2023-01-09T01:45:55.623Z,6.70
2023-01-09T01:48:26.561Z,6.70
2023-01-09T01:50:58.522Z,6.70
2023-01-09T01:53:32.645Z,6.70
2023-01-09T01:56:06.923Z,6.70
2023-01-09T01:58:41.379Z,6.70
2023-01-09T02:01:09.636Z,6.70
2023-01-09T02:03:40.612Z,6.60
2023-01-09T02:06:09.512Z,6.60
2023-01-09T02:08:38.079Z,6.60
2023-01-09T02:11:06.449Z,6.60
2023-01-09T02:13:38.648Z,6.60
2023-01-09T02:16:20.001Z,6.60
2023-01-09T02:18:51.957Z,6.60
2023-01-09T02:21:27.887Z,6.60
2023-01-09T02:24:41.785Z,6.60
2023-01-09T02:27:40.500Z,6.60
2023-01-09T02:30:31.383Z,6.60
2023-01-09T02:33:17.997Z,6.60
2023-01-09T02:36:02.835Z,6.50
2023-01-09T02:38:36.893Z,6.60
2023-01-09T02:41:10.773Z,6.60
2023-01-09T02:43:40.421Z,6.60
2023-01-09T02:46:20.229Z,6.60
2023-01-09T02:48:51.523Z,6.60
2023-01-09T02:51:26.982Z,6.60
2023-01-09T02:54:17.906Z,6.60
2023-01-09T02:56:59.168Z,6.50
2023-01-09T02:59:32.653Z,6.50
2023-01-09T03:02:18.043Z,6.50
2023-01-09T03:04:56.597Z,6.50
2023-01-09T03:07:30.173Z,6.50
2023-01-09T03:10:07.156Z,6.50
2023-01-09T03:12:35.964Z,6.50
2023-01-09T03:15:08.345Z,6.50
2023-01-09T03:17:41.265Z,6.50
2023-01-09T03:20:11.693Z,6.50
2023-01-09T03:22:40.736Z,6.50
2023-01-09T03:25:09.314Z,6.50
2023-01-09T03:27:37.169Z,6.50
2023-01-09T03:30:05.909Z,6.50
2023-01-09T03:32:33.687Z,6.40
2023-01-09T03:35:02.827Z,6.40
2023-01-09T03:37:30.599Z,6.40
2023-01-09T03:39:58.366Z,6.40
2023-01-09T03:42:26.153Z,6.40
2023-01-09T03:44:53.944Z,6.40
2023-01-09T03:47:21.747Z,6.40
2023-01-09T03:49:49.545Z,6.40
2023-01-09T03:52:18.666Z,6.40
2023-01-09T03:54:46.451Z,6.40
2023-01-09T03:57:14.301Z,6.30
2023-01-09T03:59:42.090Z,6.30
2023-01-09T04:02:09.949Z,6.30
2023-01-09T04:04:37.960Z,6.30
2023-01-09T04:07:05.747Z,6.20
2023-01-09T04:09:34.883Z,6.30
2023-01-09T04:12:02.688Z,6.20
2023-01-09T04:14:30.484Z,6.30
2023-01-09T04:16:58.283Z,6.20
2023-01-09T04:19:26.113Z,6.20
2023-01-09T04:21:53.894Z,6.20
2023-01-09T04:24:21.666Z,6.20
2023-01-09T04:26:50.764Z,6.20
2023-01-09T04:29:18.555Z,6.20
2023-01-09T04:31:46.378Z,6.10
2023-01-09T04:34:14.170Z,6.10
2023-01-09T04:36:42.922Z,6.10
2023-01-09T04:39:10.797Z,6.00
2023-01-09T04:41:50.563Z,6.00
2023-01-09T04:44:20.735Z,6.00
2023-01-09T04:46:49.124Z,5.90
2023-01-09T04:49:17.034Z,5.90
2023-01-09T04:51:45.327Z,5.90
2023-01-09T04:54:13.142Z,5.80
2023-01-09T04:56:40.969Z,5.80
2023-01-09T04:59:09.302Z,5.70
2023-01-09T05:01:38.747Z,5.60
2023-01-09T05:04:07.364Z,5.60
2023-01-09T05:06:35.929Z,5.50
2023-01-09T05:09:04.112Z,5.50
2023-01-09T05:11:31.957Z,5.40
2023-01-09T05:13:59.839Z,5.40
2023-01-09T05:16:27.688Z,5.40
2023-01-09T05:18:57.281Z,5.40
2023-01-09T05:21:25.134Z,5.40
2023-01-09T05:23:53.048Z,5.40
2023-01-09T05:26:24.073Z,5.40
2023-01-09T05:28:52.306Z,5.40
2023-01-09T05:31:20.932Z,5.40
2023-01-09T05:33:48.801Z,5.40
2023-01-09T05:36:18.104Z,5.40
2023-01-09T05:38:46.066Z,5.40
2023-01-09T05:41:13.883Z,5.40
2023-01-09T05:43:41.866Z,5.40
2023-01-09T05:46:09.998Z,5.40
2023-01-09T05:48:37.969Z,5.30
2023-01-09T05:51:05.945Z,5.40
2023-01-09T05:53:35.079Z,5.40
2023-01-09T05:56:02.885Z,5.40
2023-01-09T05:58:30.683Z,5.40
2023-01-09T06:00:59.574Z,5.40
2023-01-09T06:03:27.475Z,5.40
2023-01-09T06:05:55.291Z,5.40
2023-01-09T06:08:23.074Z,5.40
2023-01-09T06:10:52.227Z,5.40
2023-01-09T06:13:20.041Z,5.40
2023-01-09T06:15:49.221Z,5.40
2023-01-09T06:18:17.122Z,5.40
2023-01-09T06:20:45.557Z,5.40
2023-01-09T06:23:13.701Z,5.40
2023-01-09T06:25:42.171Z,5.40
2023-01-09T06:28:11.515Z,5.50
2023-01-09T06:30:39.341Z,5.50
2023-01-09T06:33:07.129Z,5.50
2023-01-09T06:35:34.940Z,5.50
2023-01-09T06:38:03.359Z,5.50
2023-01-09T06:40:31.162Z,5.50
2023-01-09T06:42:58.945Z,5.50
2023-01-09T06:45:28.082Z,5.50
2023-01-09T06:47:55.868Z,5.50
2023-01-09T06:50:23.685Z,5.50
2023-01-09T06:52:51.480Z,5.50
2023-01-09T06:55:19.425Z,5.50
2023-01-09T06:57:47.240Z,5.60
2023-01-09T07:00:15.707Z,5.60
2023-01-09T07:02:45.317Z,5.70
2023-01-09T07:05:13.466Z,5.70
2023-01-09T07:07:42.111Z,5.70
2023-01-09T07:10:11.200Z,5.60
2023-01-09T07:12:38.999Z,5.60
2023-01-09T07:15:07.741Z,5.60
2023-01-09T07:17:35.560Z,5.60
2023-01-09T07:20:05.699Z,5.60
2023-01-09T07:22:33.753Z,5.60
2023-01-09T07:25:01.531Z,5.60
2023-01-09T07:27:29.344Z,5.60
2023-01-09T07:29:57.116Z,5.60
2023-01-09T07:32:24.894Z,5.60
2023-01-09T07:34:52.702Z,5.60
2023-01-09T07:37:21.926Z,5.60
2023-01-09T07:39:49.834Z,5.60
2023-01-09T07:42:17.833Z,5.60
2023-01-09T07:44:45.652Z,5.60
2023-01-09T07:47:13.447Z,5.60
2023-01-09T07:49:41.229Z,5.60
2023-01-09T07:52:09.082Z,5.60
2023-01-09T07:54:38.189Z,5.60
2023-01-09T07:57:06.086Z,5.60
2023-01-09T07:59:33.958Z,5.60
2023-01-09T08:02:02.519Z,5.60
2023-01-09T08:04:30.329Z,5.60
2023-01-09T08:06:58.152Z,5.70
2023-01-09T08:09:26.018Z,5.70
2023-01-09T08:11:57.535Z,5.70
2023-01-09T08:14:25.351Z,5.70
2023-01-09T08:16:53.046Z,5.70
2023-01-09T08:19:20.746Z,5.70
2023-01-09T08:21:48.470Z,5.70
2023-01-09T08:24:16.203Z,5.80
2023-01-09T08:26:43.935Z,5.80
2023-01-09T08:29:13.424Z,5.80
2023-01-09T08:31:41.210Z,5.80
2023-01-09T08:34:09.054Z,5.80
2023-01-09T08:36:36.771Z,5.80
2023-01-09T08:39:04.746Z,5.80
2023-01-09T08:41:50.147Z,5.80
2023-01-09T08:44:36.592Z,5.80
2023-01-09T08:47:07.057Z,5.80
2023-01-09T08:49:35.510Z,5.80
2023-01-09T08:52:03.825Z,5.90
2023-01-09T08:54:31.555Z,5.90
2023-01-09T08:56:59.346Z,5.90
2023-01-09T08:59:28.399Z,5.90
2023-01-09T09:01:56.154Z,5.90
2023-01-09T09:04:23.944Z,5.90
2023-01-09T09:06:51.880Z,5.90
2023-01-09T09:09:19.582Z,5.90
2023-01-09T09:11:47.336Z,5.90
2023-01-09T09:14:32.398Z,5.90
2023-01-09T09:17:01.447Z,5.90
2023-01-09T09:19:29.347Z,5.90
2023-01-09T09:21:57.097Z,5.90
2023-01-09T09:24:24.849Z,6.00
2023-01-09T09:26:52.582Z,6.00
2023-01-09T09:29:20.315Z,6.00
2023-01-09T09:31:48.012Z,6.00
2023-01-09T09:34:17.105Z,5.90
2023-01-09T09:36:44.853Z,5.90
2023-01-09T09:39:12.589Z,6.00
2023-01-09T09:42:18.887Z,5.90
2023-01-09T09:45:05.767Z,6.00
2023-01-09T09:47:48.951Z,6.00
2023-01-09T09:50:29.854Z,6.00
2023-01-09T09:53:03.298Z,6.00
2023-01-09T09:55:34.015Z,6.00
2023-01-09T09:58:05.447Z,6.10
2023-01-09T10:00:33.426Z,6.10
2023-01-09T10:03:06.011Z,6.00
2023-01-09T10:05:37.698Z,6.10
2023-01-09T10:08:15.816Z,6.10
2023-01-09T10:10:47.790Z,6.00
2023-01-09T10:13:37.184Z,6.10
2023-01-09T10:16:15.132Z,6.10
2023-01-09T10:18:54.162Z,6.00
2023-01-09T10:21:31.282Z,6.10
2023-01-09T10:24:25.492Z,6.10
2023-01-09T10:26:53.984Z,6.10
2023-01-09T10:29:52.076Z,6.10
2023-01-09T10:32:40.145Z,6.10
2023-01-09T10:35:24.027Z,6.10
2023-01-09T10:37:55.267Z,6.10
2023-01-09T10:40:26.956Z,6.20
2023-01-09T10:43:00.385Z,6.20
2023-01-09T10:45:33.685Z,6.20
2023-01-09T10:48:05.839Z,6.20
2023-01-09T10:50:36.997Z,6.20
2023-01-09T10:53:19.726Z,6.30
2023-01-09T10:55:49.292Z,6.30
2023-01-09T10:58:19.127Z,6.30
2023-01-09T11:00:48.085Z,6.30
2023-01-09T11:03:18.141Z,6.30
2023-01-09T11:05:51.536Z,6.30
2023-01-09T11:08:26.489Z,6.40
2023-01-09T11:10:55.857Z,6.40
2023-01-09T11:13:26.486Z,6.40
2023-01-09T11:16:09.031Z,6.40
2023-01-09T11:18:40.589Z,6.50
2023-01-09T11:21:22.383Z,6.50
2023-01-09T11:23:51.467Z,6.50
2023-01-09T11:26:24.882Z,6.50
2023-01-09T11:29:12.017Z,6.50
2023-01-09T11:31:41.287Z,6.50
2023-01-09T11:34:17.385Z,6.50
2023-01-09T11:36:45.830Z,6.60
2023-01-09T11:39:24.222Z,6.60
2023-01-09T11:41:55.067Z,6.60
2023-01-09T11:44:23.185Z,6.60
2023-01-09T11:46:50.999Z,6.60
2023-01-09T11:49:24.093Z,6.60
2023-01-09T11:52:16.561Z,6.60
2023-01-09T11:54:52.033Z,6.60
2023-01-09T11:57:21.096Z,6.60
2023-01-09T11:59:48.817Z,6.70
2023-01-09T12:02:51.461Z,6.60
2023-01-09T12:05:31.982Z,6.60
2023-01-09T12:08:17.766Z,6.60
2023-01-09T12:11:12.587Z,6.60
2023-01-09T12:14:05.838Z,6.60
2023-01-09T12:16:39.281Z,6.70
2023-01-09T12:19:23.523Z,6.60
2023-01-09T12:21:58.943Z,6.70
2023-01-09T12:24:48.871Z,6.70
2023-01-09T12:27:26.997Z,6.70
2023-01-09T12:30:11.533Z,6.70
2023-01-09T12:32:54.788Z,6.70
2023-01-09T12:35:34.486Z,6.70
2023-01-09T12:38:21.658Z,6.80
2023-01-09T12:41:13.432Z,6.80
2023-01-09T12:43:51.540Z,6.90
2023-01-09T12:46:21.052Z,6.90
2023-01-09T12:49:08.055Z,6.90
2023-01-09T12:51:40.417Z,6.90
2023-01-09T12:54:16.083Z,6.90
2023-01-09T12:56:49.535Z,6.90
2023-01-09T12:59:30.535Z,6.90
2023-01-09T13:02:07.738Z,6.90
2023-01-09T13:04:40.979Z,6.80
2023-01-09T13:07:17.113Z,6.80
2023-01-09T13:09:48.510Z,6.80
2023-01-09T13:12:21.253Z,6.70
2023-01-09T13:14:55.782Z,6.80
2023-01-09T13:17:28.231Z,6.70
2023-01-09T13:19:55.959Z,6.70
2023-01-09T13:22:28.296Z,6.70
2023-01-09T13:25:30.864Z,6.70
2023-01-09T13:28:01.804Z,6.70
2023-01-09T13:30:47.323Z,6.70
2023-01-09T13:33:21.349Z,6.70
2023-01-09T13:35:51.206Z,6.70
2023-01-09T13:38:22.695Z,6.70
2023-01-09T13:41:22.719Z,6.70
2023-01-09T13:43:55.963Z,6.70
2023-01-09T13:46:33.952Z,6.70
2023-01-09T13:49:03.542Z,6.70
2023-01-09T13:51:59.085Z,6.60
2023-01-09T13:55:04.170Z,6.60
2023-01-09T13:57:34.799Z,6.60
2023-01-09T14:00:39.543Z,6.60
2023-01-09T14:03:19.092Z,6.60
2023-01-09T14:06:24.079Z,6.60
2023-01-09T14:09:19.732Z,6.60
2023-01-09T14:11:48.334Z,6.60
2023-01-09T14:14:28.855Z,6.60
2023-01-09T14:16:59.042Z,6.50
2023-01-09T14:19:35.650Z,6.60
2023-01-09T14:22:04.028Z,6.60
2023-01-09T14:24:35.399Z,6.60
2023-01-09T14:27:03.395Z,6.60
2023-01-09T14:29:48.326Z,6.60
2023-01-09T14:32:52.832Z,6.60
2023-01-09T14:35:29.853Z,6.60
2023-01-09T14:38:04.615Z,6.60
2023-01-09T14:40:34.107Z,6.60
2023-01-09T14:43:13.941Z,6.60
2023-01-09T14:45:49.992Z,6.60
2023-01-09T14:48:18.948Z,6.50
2023-01-09T14:50:55.010Z,6.50
2023-01-09T14:53:25.434Z,6.50
2023-01-09T14:55:54.855Z,6.50
2023-01-09T14:58:24.807Z,6.50
2023-01-09T15:00:58.101Z,6.50
2023-01-09T15:03:29.919Z,6.50
2023-01-09T15:05:59.217Z,6.50
2023-01-09T15:08:29.304Z,6.50
2023-01-09T15:10:59.311Z,6.50
2023-01-09T15:13:32.963Z,6.50
2023-01-09T15:16:01.645Z,6.50
2023-01-09T15:18:31.997Z,6.50
2023-01-09T15:21:03.773Z,6.50
2023-01-09T15:23:32.690Z,6.50
2023-01-09T15:26:15.481Z,6.50
2023-01-09T15:28:44.580Z,6.50
2023-01-09T15:31:16.865Z,6.50
2023-01-09T15:33:46.784Z,6.50
2023-01-09T15:36:20.771Z,6.50
2023-01-09T15:38:50.723Z,6.50
2023-01-09T15:41:40.612Z,6.50
2023-01-09T15:44:15.263Z,6.50
2023-01-09T15:46:46.142Z,6.40
2023-01-09T15:49:14.862Z,6.40
2023-01-09T15:51:46.076Z,6.40
2023-01-09T15:54:15.976Z,6.40
2023-01-09T15:56:45.733Z,6.40
2023-01-09T15:59:27.921Z,6.40
2023-01-09T16:02:14.948Z,6.40
2023-01-09T16:04:42.969Z,6.40
2023-01-09T16:07:16.504Z,6.50
2023-01-09T16:09:47.335Z,6.50
2023-01-09T16:12:21.374Z,6.50
2023-01-09T16:14:53.368Z,6.60
2023-01-09T16:17:26.236Z,6.50
2023-01-09T16:19:55.761Z,6.50
2023-01-09T16:22:26.893Z,6.60
2023-01-09T16:24:57.320Z,6.60
2023-01-09T16:27:27.077Z,6.60
2023-01-09T16:29:57.855Z,6.60
2023-01-09T16:32:29.335Z,6.60
2023-01-09T16:34:59.654Z,6.50
2023-01-09T16:37:29.683Z,6.50
2023-01-09T16:40:25.086Z,6.40
2023-01-09T16:43:00.352Z,6.40
2023-01-09T16:45:29.964Z,6.40
2023-01-09T16:47:58.128Z,6.40
2023-01-09T16:50:26.531Z,6.30
2023-01-09T16:52:57.184Z,6.30
2023-01-09T16:55:24.935Z,6.30
2023-01-09T16:57:52.811Z,6.30
2023-01-09T17:00:22.063Z,6.30
2023-01-09T17:02:49.856Z,6.30
2023-01-09T17:05:17.702Z,6.20
2023-01-09T17:07:45.503Z,6.20
2023-01-09T17:10:21.820Z,6.20
2023-01-09T17:12:49.980Z,6.20
2023-01-09T17:15:17.853Z,6.20
2023-01-09T17:17:45.957Z,6.20
2023-01-09T17:20:18.943Z,6.20
2023-01-09T17:22:48.053Z,6.10
2023-01-09T17:25:35.153Z,6.10
2023-01-09T17:28:21.894Z,6.10
2023-01-09T17:30:49.646Z,6.10
2023-01-09T17:33:18.818Z,6.10
2023-01-09T17:35:46.705Z,6.10
2023-01-09T17:38:15.377Z,6.10
2023-01-09T17:40:45.179Z,6.10
2023-01-09T17:43:13.377Z,6.10
2023-01-09T17:45:42.462Z,6.10
2023-01-09T17:48:16.446Z,6.10
2023-01-09T17:50:44.583Z,6.00
2023-01-09T17:53:12.528Z,6.10
2023-01-09T17:55:40.842Z,6.10
2023-01-09T17:58:25.692Z,6.00
2023-01-09T18:00:53.738Z,6.00
2023-01-09T18:03:24.194Z,6.00
2023-01-09T18:05:52.096Z,6.00
2023-01-09T18:08:19.813Z,6.00
2023-01-09T18:10:48.419Z,6.00
2023-01-09T18:13:17.853Z,6.00
2023-01-09T18:15:46.986Z,6.00
2023-01-09T18:18:16.048Z,6.00
2023-01-09T18:20:45.355Z,6.00
2023-01-09T18:23:13.449Z,6.00
2023-01-09T18:25:42.566Z,6.00
2023-01-09T18:28:12.062Z,6.00
2023-01-09T18:30:44.032Z,5.90
2023-01-09T18:33:12.191Z,6.00
2023-01-09T18:35:39.979Z,6.00
2023-01-09T18:38:08.665Z,5.90
2023-01-09T18:40:37.039Z,5.90
2023-01-09T18:43:07.661Z,5.90
2023-01-09T18:45:37.236Z,5.90
2023-01-09T18:48:07.436Z,5.90
2023-01-09T18:50:35.197Z,5.90
2023-01-09T18:53:02.945Z,5.90
2023-01-09T18:55:30.653Z,5.90
2023-01-09T18:57:58.375Z,5.90
2023-01-09T19:00:26.124Z,5.90
2023-01-09T19:02:53.899Z,5.90
2023-01-09T19:05:23.235Z,5.90
2023-01-09T19:07:51.023Z,5.90
2023-01-09T19:10:19.240Z,5.90
2023-01-09T19:12:46.979Z,5.90
2023-01-09T19:15:14.722Z,5.90
2023-01-09T19:17:42.447Z,5.90
2023-01-09T19:20:11.549Z,5.90
2023-01-09T19:22:40.962Z,5.90
2023-01-09T19:25:11.843Z,5.90
2023-01-09T19:27:39.682Z,5.90
2023-01-09T19:30:09.615Z,5.90
2023-01-09T19:32:38.253Z,5.90
2023-01-09T19:35:06.623Z,5.90
2023-01-09T19:37:35.226Z,5.90
2023-01-09T19:40:04.903Z,5.90
2023-01-09T19:42:32.651Z,5.90
2023-01-09T19:45:00.399Z,5.90
2023-01-09T19:47:28.129Z,5.90
2023-01-09T19:49:56.184Z,5.90
2023-01-09T19:52:23.895Z,5.90
2023-01-09T19:54:51.616Z,5.90
2023-01-09T19:57:20.867Z,5.90
2023-01-09T19:59:48.629Z,5.90
2023-01-09T20:02:16.705Z,5.90
2023-01-09T20:04:44.460Z,5.90
2023-01-09T20:07:12.192Z,5.90
2023-01-09T20:09:39.919Z,5.90
2023-01-09T20:12:07.961Z,5.90
2023-01-09T20:14:37.730Z,5.90
2023-01-09T20:17:05.538Z,5.90
2023-01-09T20:19:33.998Z,5.90
2023-01-09T20:22:02.017Z,5.90
2023-01-09T20:24:29.881Z,5.90
2023-01-09T20:26:57.676Z,5.90
2023-01-09T20:29:25.686Z,5.90
2023-01-09T20:31:55.863Z,5.90
2023-01-09T20:34:23.603Z,5.80
2023-01-09T20:36:51.462Z,5.90
2023-01-09T20:39:19.339Z,5.90
2023-01-09T20:41:47.080Z,5.90
2023-01-09T20:44:15.564Z,5.90
2023-01-09T20:46:47.251Z,5.90
2023-01-09T20:49:19.030Z,5.90
2023-01-09T20:51:48.541Z,5.90
2023-01-09T20:54:17.201Z,5.90
2023-01-09T20:56:44.979Z,5.90
2023-01-09T20:59:14.328Z,5.90
2023-01-09T21:01:42.082Z,5.90
2023-01-09T21:04:10.264Z,5.90
2023-01-09T21:06:39.703Z,5.90
2023-01-09T21:09:07.840Z,5.90
2023-01-09T21:11:35.697Z,5.90
2023-01-09T21:14:03.419Z,5.90
2023-01-09T21:16:31.233Z,5.90
2023-01-09T21:18:59.121Z,5.90
2023-01-09T21:21:28.243Z,5.90
2023-01-09T21:23:58.914Z,5.90
2023-01-09T21:26:28.880Z,5.90
2023-01-09T21:28:58.749Z,5.90
2023-01-09T21:31:33.257Z,5.90
2023-01-09T21:34:02.816Z,5.80
2023-01-09T21:36:30.607Z,5.80
2023-01-09T21:39:00.378Z,5.80
2023-01-09T21:41:45.670Z,5.90
2023-01-09T21:44:32.049Z,5.80
2023-01-09T21:47:00.449Z,5.90
2023-01-09T21:49:31.226Z,5.80
2023-01-09T21:51:59.117Z,5.80
2023-01-09T21:54:28.200Z,5.80
2023-01-09T21:56:56.193Z,5.80
2023-01-09T21:59:23.942Z,5.80
2023-01-09T22:01:52.307Z,5.80
2023-01-09T22:04:22.302Z,5.80
2023-01-09T22:06:50.217Z,5.80
2023-01-09T22:09:18.240Z,5.80
2023-01-09T22:11:47.739Z,5.80
2023-01-09T22:14:17.038Z,5.80
2023-01-09T22:16:45.957Z,5.80
2023-01-09T22:19:14.263Z,5.80
2023-01-09T22:21:42.011Z,5.70
2023-01-09T22:24:13.395Z,5.70
2023-01-09T22:26:41.138Z,5.80
2023-01-09T22:29:10.239Z,5.80
2023-01-09T22:31:39.803Z,5.70
2023-01-09T22:34:07.955Z,5.80
2023-01-09T22:36:35.862Z,5.70
2023-01-09T22:39:03.651Z,5.70
2023-01-09T22:41:31.444Z,5.70
2023-01-09T22:43:59.217Z,5.80
2023-01-09T22:46:28.314Z,5.70
2023-01-09T22:48:56.041Z,5.80
2023-01-09T22:51:23.941Z,5.70
2023-01-09T22:53:52.263Z,5.70
2023-01-09T22:56:22.029Z,5.70
2023-01-09T22:58:51.975Z,5.70
2023-01-09T23:01:20.131Z,5.70
2023-01-09T23:03:49.516Z,5.70
2023-01-09T23:06:19.401Z,5.70
2023-01-09T23:08:47.247Z,5.70
2023-01-09T23:11:38.068Z,5.80
2023-01-09T23:14:05.892Z,5.70
2023-01-09T23:16:33.689Z,5.80
2023-01-09T23:19:02.976Z,5.70
2023-01-09T23:21:30.688Z,5.70
2023-01-09T23:23:58.398Z,5.70
2023-01-09T23:26:26.090Z,5.70
2023-01-09T23:28:53.958Z,5.70
2023-01-09T23:31:21.723Z,5.80
2023-01-09T23:33:49.447Z,5.70
2023-01-09T23:36:18.781Z,5.70
2023-01-09T23:38:46.492Z,5.80
2023-01-09T23:41:14.183Z,5.70
2023-01-09T23:43:41.525Z,5.80
2023-01-09T23:46:09.362Z,5.80
2023-01-09T23:48:37.119Z,5.70
2023-01-09T23:51:06.590Z,5.70
2023-01-09T23:53:35.617Z,5.70
2023-01-09T23:56:03.834Z,5.70
2023-01-09T23:58:31.547Z,5.70
